createdAt,value
2022-10-18T00:00:04.672Z,1010.99
2022-10-18T00:01:04.433Z,1010.99
2022-10-18T00:02:04.698Z,1011.00
2022-10-18T00:03:07.488Z,1011.05
2022-10-18T00:04:05.633Z,1010.99
2022-10-18T00:05:04.415Z,1010.99
2022-10-18T00:06:20.108Z,1010.96
2022-10-18T00:07:05.380Z,1011.00
2022-10-18T00:08:04.356Z,1011.03
2022-10-18T00:09:05.619Z,1011.04
2022-10-18T00:10:04.597Z,1011.04
2022-10-18T00:11:04.581Z,1011.06
2022-10-18T00:12:11.603Z,1011.06
2022-10-18T00:13:04.296Z,1011.05
2022-10-18T00:14:04.526Z,1011.04
2022-10-18T00:15:04.324Z,1011.04
2022-10-18T00:16:04.518Z,1011.06
2022-10-18T00:17:11.401Z,1011.06
2022-10-18T00:18:05.500Z,1011.06
2022-10-18T00:19:04.510Z,1011.04
2022-10-18T00:20:04.234Z,1011.07
2022-10-18T00:21:04.259Z,1011.06
2022-10-18T00:22:04.450Z,1011.06
2022-10-18T00:23:11.569Z,1011.07
2022-10-18T00:24:05.448Z,1011.10
2022-10-18T00:25:07.468Z,1011.05
2022-10-18T00:26:07.440Z,1011.05
2022-10-18T00:27:04.408Z,1011.07
2022-10-18T00:28:04.401Z,1011.11
2022-10-18T00:29:04.188Z,1011.03
2022-10-18T00:30:05.369Z,1011.08
2022-10-18T00:31:04.125Z,1011.05
2022-10-18T00:32:04.115Z,1011.05
2022-10-18T00:33:04.091Z,1011.08
2022-10-18T00:34:04.101Z,1011.08
2022-10-18T00:35:04.088Z,1011.05
2022-10-18T00:36:07.331Z,1011.03
2022-10-18T00:37:04.267Z,1011.03
2022-10-18T00:38:07.313Z,1011.05
2022-10-18T00:39:04.284Z,1011.02
2022-10-18T00:40:11.247Z,1011.01
2022-10-18T00:41:04.294Z,1010.96
2022-10-18T00:42:04.051Z,1010.94
2022-10-18T00:43:03.989Z,1010.93
2022-10-18T00:44:04.224Z,1010.88
2022-10-18T00:45:05.220Z,1010.93
2022-10-18T00:46:03.988Z,1010.93
2022-10-18T00:47:03.977Z,1010.94
2022-10-18T00:48:03.941Z,1010.97
2022-10-18T00:49:04.981Z,1011.00
2022-10-18T00:50:04.959Z,1010.96
2022-10-18T00:51:04.144Z,1010.90
2022-10-18T00:52:04.139Z,1010.94
2022-10-18T00:53:04.124Z,1010.91
2022-10-18T00:54:05.119Z,1010.91
2022-10-18T00:55:07.134Z,1010.86
2022-10-18T00:56:04.888Z,1010.87
2022-10-18T00:57:04.100Z,1010.88
2022-10-18T00:58:19.238Z,1010.85
2022-10-18T00:59:03.833Z,1010.89
2022-10-18T01:00:03.830Z,1010.84
2022-10-18T01:01:03.804Z,1010.86
2022-10-18T01:02:03.863Z,1010.87
2022-10-18T01:03:04.796Z,1010.86
2022-10-18T01:04:04.792Z,1010.87
2022-10-18T01:05:06.813Z,1010.87
2022-10-18T01:06:04.993Z,1010.91
2022-10-18T01:07:03.980Z,1010.89
2022-10-18T01:08:03.984Z,1010.92
2022-10-18T01:09:04.973Z,1010.86
2022-10-18T01:10:06.752Z,1010.82
2022-10-18T01:11:03.707Z,1010.85
2022-10-18T01:12:10.972Z,1010.83
2022-10-18T01:13:03.952Z,1010.82
2022-10-18T01:14:03.696Z,1010.78
2022-10-18T01:15:06.716Z,1010.82
2022-10-18T01:16:03.925Z,1010.81
2022-10-18T01:17:10.745Z,1010.78
2022-10-18T01:18:03.665Z,1010.74
2022-10-18T01:19:03.628Z,1010.69
2022-10-18T01:20:03.627Z,1010.69
2022-10-18T01:21:03.623Z,1010.69
2022-10-18T01:22:03.822Z,1010.68
2022-10-18T01:23:03.596Z,1010.68
2022-10-18T01:24:03.800Z,1010.71
2022-10-18T01:25:03.819Z,1010.70
2022-10-18T01:26:03.587Z,1010.66
2022-10-18T01:27:03.564Z,1010.66
2022-10-18T01:28:03.527Z,1010.68
2022-10-18T01:29:03.862Z,1010.65
2022-10-18T01:30:04.536Z,1010.67
2022-10-18T01:31:03.745Z,1010.65
2022-10-18T01:32:06.756Z,1010.64
2022-10-18T01:33:06.761Z,1010.61
2022-10-18T01:34:03.495Z,1010.61
2022-10-18T01:35:04.483Z,1010.61
2022-10-18T01:36:03.460Z,1010.62
2022-10-18T01:37:03.673Z,1010.62
2022-10-18T01:38:03.648Z,1010.59
2022-10-18T01:39:03.687Z,1010.57
2022-10-18T01:40:03.405Z,1010.56
2022-10-18T01:41:13.288Z,1010.55
2022-10-18T01:42:07.420Z,1010.54
2022-10-18T01:43:03.463Z,1010.56
2022-10-18T01:44:03.396Z,1010.56
2022-10-18T01:45:03.594Z,1010.55
2022-10-18T01:46:03.352Z,1010.56
2022-10-18T01:47:03.601Z,1010.52
2022-10-18T01:48:19.003Z,1010.49
2022-10-18T01:49:06.605Z,1010.49
2022-10-18T01:50:03.542Z,1010.46
2022-10-18T01:51:03.307Z,1010.48
2022-10-18T01:52:03.595Z,1010.47
2022-10-18T01:53:04.516Z,1010.46
2022-10-18T01:54:03.286Z,1010.42
2022-10-18T01:55:03.494Z,1010.43
2022-10-18T01:56:03.491Z,1010.44
2022-10-18T01:57:03.238Z,1010.39
2022-10-18T01:58:03.250Z,1010.43
2022-10-18T01:59:03.453Z,1010.44
2022-10-18T02:00:03.441Z,1010.41
2022-10-18T02:01:03.263Z,1010.40
2022-10-18T02:02:03.191Z,1010.37
2022-10-18T02:03:03.447Z,1010.40
2022-10-18T02:04:03.193Z,1010.32
2022-10-18T02:05:04.625Z,1010.35
2022-10-18T02:06:04.152Z,1010.44
2022-10-18T02:07:04.406Z,1010.39
2022-10-18T02:08:22.052Z,1010.35
2022-10-18T02:09:04.378Z,1010.29
2022-10-18T02:10:03.144Z,1010.29
2022-10-18T02:11:03.100Z,1010.29
2022-10-18T02:12:06.095Z,1010.28
2022-10-18T02:13:03.087Z,1010.30
2022-10-18T02:14:03.303Z,1010.33
2022-10-18T02:15:10.297Z,1010.33
2022-10-18T02:16:03.057Z,1010.35
2022-10-18T02:17:03.293Z,1010.37
2022-10-18T02:18:04.032Z,1010.36
2022-10-18T02:19:03.007Z,1010.36
2022-10-18T02:20:03.018Z,1010.41
2022-10-18T02:21:23.980Z,1010.42
2022-10-18T02:22:06.009Z,1010.37
2022-10-18T02:23:02.957Z,1010.40
2022-10-18T02:24:02.956Z,1010.40
2022-10-18T02:25:02.973Z,1010.40
2022-10-18T02:26:02.937Z,1010.40
2022-10-18T02:27:05.984Z,1010.38
2022-10-18T02:28:03.138Z,1010.37
2022-10-18T02:29:03.135Z,1010.35
2022-10-18T02:30:03.162Z,1010.30
2022-10-18T02:31:03.122Z,1010.36
2022-10-18T02:32:02.877Z,1010.34
2022-10-18T02:33:03.107Z,1010.37
2022-10-18T02:34:02.864Z,1010.32
2022-10-18T02:35:03.108Z,1010.31
2022-10-18T02:36:03.088Z,1010.33
2022-10-18T02:37:02.829Z,1010.29
2022-10-18T02:38:02.831Z,1010.34
2022-10-18T02:39:05.859Z,1010.38
2022-10-18T02:40:03.054Z,1010.36
2022-10-18T02:41:02.788Z,1010.35
2022-10-18T02:42:03.002Z,1010.31
2022-10-18T02:43:06.044Z,1010.30
2022-10-18T02:44:03.020Z,1010.30
2022-10-18T02:45:03.995Z,1010.28
2022-10-18T02:46:05.991Z,1010.28
2022-10-18T02:47:02.763Z,1010.27
2022-10-18T02:48:02.969Z,1010.25
2022-10-18T02:49:02.975Z,1010.28
2022-10-18T02:50:02.703Z,1010.28
2022-10-18T02:51:02.672Z,1010.25
2022-10-18T02:52:02.934Z,1010.22
2022-10-18T02:53:03.678Z,1010.16
2022-10-18T02:54:02.669Z,1010.16
2022-10-18T02:55:05.675Z,1010.17
2022-10-18T02:56:03.649Z,1010.19
2022-10-18T02:57:02.847Z,1010.19
2022-10-18T02:58:02.621Z,1010.18
2022-10-18T02:59:02.594Z,1010.19
2022-10-18T03:00:02.611Z,1010.20
2022-10-18T03:01:09.977Z,1010.20
2022-10-18T03:02:02.597Z,1010.19
2022-10-18T03:03:02.551Z,1010.22
2022-10-18T03:04:02.553Z,1010.20
2022-10-18T03:05:02.536Z,1010.16
2022-10-18T03:06:02.754Z,1010.13
2022-10-18T03:07:02.514Z,1010.18
2022-10-18T03:08:02.764Z,1010.15
2022-10-18T03:09:03.756Z,1010.16
2022-10-18T03:10:02.486Z,1010.12
2022-10-18T03:11:02.463Z,1010.14
2022-10-18T03:12:02.485Z,1010.13
2022-10-18T03:13:02.702Z,1010.18
2022-10-18T03:14:02.672Z,1010.17
2022-10-18T03:15:02.444Z,1010.10
2022-10-18T03:16:03.446Z,1010.15
2022-10-18T03:17:23.665Z,1010.14
2022-10-18T03:18:02.657Z,1010.10
2022-10-18T03:19:03.663Z,1010.08
2022-10-18T03:20:02.617Z,1010.14
2022-10-18T03:21:05.636Z,1010.14
2022-10-18T03:22:09.499Z,1010.17
2022-10-18T03:23:17.599Z,1010.15
2022-10-18T03:24:02.364Z,1010.17
2022-10-18T03:25:03.591Z,1010.17
2022-10-18T03:26:02.552Z,1010.18
2022-10-18T03:27:03.561Z,1010.23
2022-10-18T03:28:03.321Z,1010.23
2022-10-18T03:29:02.601Z,1010.26
2022-10-18T03:30:03.323Z,1010.24
2022-10-18T03:31:09.408Z,1010.26
2022-10-18T03:32:05.550Z,1010.23
2022-10-18T03:33:02.239Z,1010.27
2022-10-18T03:34:02.256Z,1010.30
2022-10-18T03:35:02.283Z,1010.26
2022-10-18T03:36:02.462Z,1010.28
2022-10-18T03:37:05.583Z,1010.31
2022-10-18T03:38:09.740Z,1010.30
2022-10-18T03:39:02.429Z,1010.33
2022-10-18T03:40:05.207Z,1010.32
2022-10-18T03:41:02.186Z,1010.32
2022-10-18T03:42:05.193Z,1010.34
2022-10-18T03:43:02.147Z,1010.28
2022-10-18T03:44:02.156Z,1010.32
2022-10-18T03:45:02.138Z,1010.31
2022-10-18T03:46:05.137Z,1010.28
2022-10-18T03:47:02.347Z,1010.34
2022-10-18T03:48:03.114Z,1010.33
2022-10-18T03:49:05.116Z,1010.34
2022-10-18T03:50:02.312Z,1010.34
2022-10-18T03:51:03.061Z,1010.32
2022-10-18T03:52:02.048Z,1010.28
2022-10-18T03:53:02.052Z,1010.33
2022-10-18T03:54:02.044Z,1010.35
2022-10-18T03:55:03.247Z,1010.32
2022-10-18T03:56:03.033Z,1010.36
2022-10-18T03:57:02.006Z,1010.41
2022-10-18T03:58:02.013Z,1010.42
2022-10-18T03:59:05.025Z,1010.45
2022-10-18T04:00:02.223Z,1010.52
2022-10-18T04:01:01.963Z,1010.63
2022-10-18T04:02:03.046Z,1010.73
2022-10-18T04:03:02.185Z,1010.76
2022-10-18T04:04:05.221Z,1010.73
2022-10-18T04:05:02.212Z,1010.70
2022-10-18T04:06:01.924Z,1010.69
2022-10-18T04:07:01.906Z,1010.72
2022-10-18T04:08:01.899Z,1010.79
2022-10-18T04:09:04.168Z,1010.80
2022-10-18T04:10:02.875Z,1010.84
2022-10-18T04:11:01.900Z,1010.85
2022-10-18T04:12:02.885Z,1010.84
2022-10-18T04:13:01.823Z,1010.86
2022-10-18T04:14:02.852Z,1010.83
2022-10-18T04:15:01.830Z,1010.81
2022-10-18T04:16:01.831Z,1010.81
2022-10-18T04:17:01.783Z,1010.83
2022-10-18T04:18:02.054Z,1010.87
2022-10-18T04:19:02.015Z,1010.91
2022-10-18T04:20:04.794Z,1010.81
2022-10-18T04:21:09.197Z,1010.80
2022-10-18T04:22:02.019Z,1010.82
2022-10-18T04:23:01.981Z,1010.83
2022-10-18T04:24:01.948Z,1010.85
2022-10-18T04:25:01.942Z,1010.84
2022-10-18T04:26:02.731Z,1010.83
2022-10-18T04:27:01.729Z,1010.79
2022-10-18T04:28:01.691Z,1010.78
2022-10-18T04:29:02.773Z,1010.80
2022-10-18T04:30:01.987Z,1010.83
2022-10-18T04:31:01.661Z,1010.84
2022-10-18T04:32:01.667Z,1010.84
2022-10-18T04:33:02.664Z,1010.83
2022-10-18T04:34:01.852Z,1010.84
2022-10-18T04:35:04.877Z,1010.81
2022-10-18T04:36:01.864Z,1010.82
2022-10-18T04:37:01.651Z,1010.83
2022-10-18T04:38:22.840Z,1010.85
2022-10-18T04:39:01.792Z,1010.83
2022-10-18T04:40:01.557Z,1010.87
2022-10-18T04:41:04.579Z,1010.88
2022-10-18T04:42:04.582Z,1010.91
2022-10-18T04:43:01.776Z,1010.97
2022-10-18T04:44:16.993Z,1010.99
2022-10-18T04:45:17.130Z,1011.05
2022-10-18T04:46:04.772Z,1011.03
2022-10-18T04:47:02.726Z,1011.03
2022-10-18T04:48:01.492Z,1011.04
2022-10-18T04:49:01.471Z,1011.03
2022-10-18T04:50:01.469Z,1011.05
2022-10-18T04:51:01.442Z,1011.09
2022-10-18T04:52:01.670Z,1011.05
2022-10-18T04:53:01.678Z,1011.03
2022-10-18T04:54:01.652Z,1011.05
2022-10-18T04:55:01.442Z,1011.07
2022-10-18T04:56:04.419Z,1011.08
2022-10-18T04:57:01.615Z,1011.16
2022-10-18T04:58:01.416Z,1011.14
2022-10-18T04:59:01.605Z,1011.15
2022-10-18T05:00:01.366Z,1011.08
2022-10-18T05:01:01.353Z,1011.10
2022-10-18T05:03:04.345Z,1011.11
2022-10-18T05:04:01.364Z,1011.14
2022-10-18T05:05:17.010Z,1011.15
2022-10-18T05:06:02.817Z,1011.12
2022-10-18T05:07:01.339Z,1011.10
2022-10-18T05:08:08.543Z,1011.13
2022-10-18T05:09:01.304Z,1011.09
2022-10-18T05:10:02.275Z,1011.10
2022-10-18T05:11:02.367Z,1011.07
2022-10-18T05:12:01.252Z,1011.06
2022-10-18T05:13:01.442Z,1011.08
2022-10-18T05:14:01.449Z,1011.08
2022-10-18T05:15:08.646Z,1011.03
2022-10-18T05:16:16.463Z,1011.00
2022-10-18T05:17:02.462Z,1011.01
2022-10-18T05:18:08.566Z,1011.08
2022-10-18T05:19:01.190Z,1011.07
2022-10-18T05:20:02.224Z,1011.05
2022-10-18T05:21:01.377Z,1011.02
2022-10-18T05:22:04.144Z,1011.06
2022-10-18T05:23:01.358Z,1011.05
2022-10-18T05:24:01.144Z,1011.05
2022-10-18T05:25:08.426Z,1011.02
2022-10-18T05:26:23.368Z,1010.97
2022-10-18T05:27:01.075Z,1010.93
2022-10-18T05:28:15.672Z,1010.88
2022-10-18T05:29:02.215Z,1010.92
2022-10-18T05:30:04.542Z,1010.90
2022-10-18T05:31:02.034Z,1010.85
2022-10-18T05:32:08.277Z,1010.87
2022-10-18T05:33:02.058Z,1010.86
2022-10-18T05:34:01.244Z,1010.90
2022-10-18T05:35:01.251Z,1010.86
2022-10-18T05:36:00.979Z,1010.88
2022-10-18T05:37:02.210Z,1010.86
2022-10-18T05:38:00.969Z,1010.87
2022-10-18T05:39:04.086Z,1010.88
2022-10-18T05:40:01.207Z,1010.88
2022-10-18T05:41:00.935Z,1010.90
2022-10-18T05:42:00.933Z,1010.90
2022-10-18T05:43:00.906Z,1010.94
2022-10-18T05:44:00.903Z,1010.91
2022-10-18T05:45:00.901Z,1010.93
2022-10-18T05:46:00.904Z,1010.88
2022-10-18T05:47:03.904Z,1010.86
2022-10-18T05:48:00.897Z,1010.83
2022-10-18T05:49:03.934Z,1010.81
2022-10-18T05:50:04.110Z,1010.77
2022-10-18T05:51:01.076Z,1010.81
2022-10-18T05:52:00.841Z,1010.76
2022-10-18T05:53:11.930Z,1010.77
2022-10-18T05:54:02.031Z,1010.75
2022-10-18T05:55:01.007Z,1010.75
2022-10-18T05:56:01.042Z,1010.79
2022-10-18T05:57:00.798Z,1010.70
2022-10-18T05:58:00.993Z,1010.74
2022-10-18T05:59:01.000Z,1010.73
2022-10-18T06:00:16.105Z,1010.70
2022-10-18T06:01:00.766Z,1010.63
2022-10-18T06:02:00.785Z,1010.62
2022-10-18T06:03:01.939Z,1010.64
2022-10-18T06:04:00.956Z,1010.63
2022-10-18T06:05:16.358Z,1010.63
2022-10-18T06:06:00.714Z,1010.65
2022-10-18T06:07:00.692Z,1010.68
2022-10-18T06:08:03.290Z,1010.66
2022-10-18T06:09:00.653Z,1010.69
2022-10-18T06:10:00.658Z,1010.68
2022-10-18T06:11:03.665Z,1010.75
2022-10-18T06:12:00.638Z,1010.71
2022-10-18T06:13:01.653Z,1010.74
2022-10-18T06:14:00.594Z,1010.75
2022-10-18T06:15:01.833Z,1010.71
2022-10-18T06:16:07.890Z,1010.72
2022-10-18T06:17:00.816Z,1010.67
2022-10-18T06:18:00.554Z,1010.69
2022-10-18T06:19:00.557Z,1010.65
2022-10-18T06:20:07.780Z,1010.67
2022-10-18T06:21:00.745Z,1010.69
2022-10-18T06:22:00.535Z,1010.69
2022-10-18T06:23:00.516Z,1010.70
2022-10-18T06:24:03.744Z,1010.73
2022-10-18T06:25:01.499Z,1010.72
2022-10-18T06:26:01.508Z,1010.70
2022-10-18T06:27:00.762Z,1010.71
2022-10-18T06:28:00.458Z,1010.69
2022-10-18T06:29:00.485Z,1010.65
2022-10-18T06:30:01.437Z,1010.60
2022-10-18T06:31:00.695Z,1010.58
2022-10-18T06:32:00.417Z,1010.51
2022-10-18T06:33:00.649Z,1010.54
2022-10-18T06:34:00.381Z,1010.56
2022-10-18T06:35:00.392Z,1010.57
2022-10-18T06:36:00.406Z,1010.61
2022-10-18T06:37:00.378Z,1010.67
2022-10-18T06:38:01.399Z,1010.64
2022-10-18T06:39:00.567Z,1010.62
2022-10-18T06:40:00.338Z,1010.62
2022-10-18T06:41:00.333Z,1010.64
2022-10-18T06:42:00.338Z,1010.68
2022-10-18T06:43:16.233Z,1010.69
2022-10-18T06:44:01.300Z,1010.73
2022-10-18T06:45:03.304Z,1010.77
2022-10-18T06:46:00.270Z,1010.79
2022-10-18T06:47:00.502Z,1010.78
2022-10-18T06:48:01.286Z,1010.81
2022-10-18T06:49:00.477Z,1010.79
2022-10-18T06:50:00.494Z,1010.76
2022-10-18T06:51:00.399Z,1010.83
2022-10-18T06:52:00.461Z,1010.85
2022-10-18T06:53:01.442Z,1010.82
2022-10-18T06:54:16.750Z,1010.84
2022-10-18T06:55:02.181Z,1010.91
2022-10-18T06:56:03.191Z,1010.94
2022-10-18T06:57:01.171Z,1010.95
2022-10-18T06:58:00.165Z,1011.02
2022-10-18T06:59:00.373Z,1011.07
2022-10-18T07:00:00.139Z,1011.13
2022-10-18T07:01:00.109Z,1011.21
2022-10-18T07:02:01.209Z,1011.24
2022-10-18T07:03:00.365Z,1011.23
2022-10-18T07:04:01.084Z,1011.22
2022-10-18T07:05:00.291Z,1011.26
2022-10-18T07:06:00.107Z,1011.26
2022-10-18T07:07:00.055Z,1011.26
2022-10-18T07:08:07.275Z,1011.22
2022-10-18T07:09:00.072Z,1011.22
2022-10-18T07:10:01.027Z,1011.16
2022-10-18T07:10:59.999Z,1011.12
2022-10-18T07:12:00.023Z,1011.13
2022-10-18T07:13:19.959Z,1011.12
2022-10-18T07:14:01.224Z,1011.10
2022-10-18T07:15:00.221Z,1011.10
2022-10-18T07:15:59.969Z,1011.06
2022-10-18T07:17:01.173Z,1011.00
2022-10-18T07:18:01.201Z,1011.05
2022-10-18T07:19:00.419Z,1011.05
2022-10-18T07:19:59.947Z,1011.08
2022-10-18T07:21:02.960Z,1011.10
2022-10-18T07:22:02.933Z,1011.10
2022-10-18T07:23:07.338Z,1011.12
2022-10-18T07:24:01.123Z,1011.12
2022-10-18T07:25:00.194Z,1011.11
2022-10-18T07:25:59.899Z,1011.11
2022-10-18T07:27:00.868Z,1011.16
2022-10-18T07:28:00.056Z,1011.11
2022-10-18T07:28:59.850Z,1011.15
2022-10-18T07:30:06.946Z,1011.16
2022-10-18T07:31:03.647Z,1011.19
2022-10-18T07:32:00.814Z,1011.24
2022-10-18T07:32:59.803Z,1011.31
2022-10-18T07:34:01.045Z,1011.41
2022-10-18T07:34:59.793Z,1011.53
2022-10-18T07:36:00.004Z,1011.62
2022-10-18T07:36:59.737Z,1011.64
2022-10-18T07:37:59.743Z,1011.67
2022-10-18T07:39:00.730Z,1011.60
2022-10-18T07:39:59.730Z,1011.49
2022-10-18T07:40:59.722Z,1011.45
2022-10-18T07:41:59.710Z,1011.43
2022-10-18T07:43:04.060Z,1011.42
2022-10-18T07:44:00.683Z,1011.43
2022-10-18T07:44:59.919Z,1011.50
2022-10-18T07:45:59.898Z,1011.56
2022-10-18T07:47:00.657Z,1011.58
2022-10-18T07:48:02.960Z,1011.60
2022-10-18T07:48:59.670Z,1011.59
2022-10-18T07:49:59.855Z,1011.62
2022-10-18T07:51:02.641Z,1011.62
2022-10-18T07:51:59.612Z,1011.64
2022-10-18T07:53:02.637Z,1011.69
2022-10-18T07:53:59.650Z,1011.70
2022-10-18T07:55:00.578Z,1011.71
2022-10-18T07:56:00.763Z,1011.71
2022-10-18T07:57:00.808Z,1011.65
2022-10-18T07:58:02.814Z,1011.65
2022-10-18T07:58:59.544Z,1011.65
2022-10-18T07:59:59.501Z,1011.66
2022-10-18T08:01:06.881Z,1011.64
2022-10-18T08:02:00.513Z,1011.69
2022-10-18T08:03:02.495Z,1011.76
2022-10-18T08:04:02.107Z,1011.80
2022-10-18T08:05:00.480Z,1011.73
2022-10-18T08:06:02.465Z,1011.76
2022-10-18T08:06:59.456Z,1011.69
2022-10-18T08:08:04.229Z,1011.71
2022-10-18T08:09:00.446Z,1011.68
2022-10-18T08:09:59.386Z,1011.67
2022-10-18T08:10:59.465Z,1011.70
2022-10-18T08:11:59.385Z,1011.70
2022-10-18T08:12:59.374Z,1011.77
2022-10-18T08:13:59.357Z,1011.76
2022-10-18T08:14:59.377Z,1011.77
2022-10-18T08:15:59.366Z,1011.74
2022-10-18T08:16:59.578Z,1011.71
2022-10-18T08:17:59.312Z,1011.74
2022-10-18T08:18:59.307Z,1011.70
2022-10-18T08:20:11.841Z,1011.75
2022-10-18T08:21:00.358Z,1011.75
2022-10-18T08:21:59.268Z,1011.77
2022-10-18T08:23:00.659Z,1011.72
2022-10-18T08:23:59.255Z,1011.68
2022-10-18T08:24:59.239Z,1011.69
2022-10-18T08:25:59.264Z,1011.72
2022-10-18T08:26:59.248Z,1011.70
2022-10-18T08:27:59.219Z,1011.72
2022-10-18T08:29:17.590Z,1011.69
2022-10-18T08:30:00.326Z,1011.68
2022-10-18T08:30:59.194Z,1011.70
2022-10-18T08:31:59.192Z,1011.73
2022-10-18T08:32:59.180Z,1011.75
2022-10-18T08:33:59.193Z,1011.74
2022-10-18T08:34:59.156Z,1011.68
2022-10-18T08:35:59.159Z,1011.74
2022-10-18T08:36:59.167Z,1011.74
2022-10-18T08:37:59.133Z,1011.74
2022-10-18T08:38:59.126Z,1011.72
2022-10-18T08:39:59.089Z,1011.72
2022-10-18T08:40:59.338Z,1011.70
2022-10-18T08:41:59.119Z,1011.70
2022-10-18T08:43:00.115Z,1011.70
2022-10-18T08:44:01.079Z,1011.75
2022-10-18T08:45:04.898Z,1011.70
2022-10-18T08:46:00.019Z,1011.76
2022-10-18T08:46:59.060Z,1011.72
2022-10-18T08:47:59.025Z,1011.75
2022-10-18T08:48:59.001Z,1011.76
2022-10-18T08:49:59.003Z,1011.76
2022-10-18T08:51:02.262Z,1011.80
2022-10-18T08:51:59.211Z,1011.75
2022-10-18T08:52:58.974Z,1011.83
2022-10-18T08:53:58.938Z,1011.86
2022-10-18T08:54:58.942Z,1011.82
2022-10-18T08:55:59.937Z,1011.87
2022-10-18T08:56:59.933Z,1011.84
2022-10-18T08:57:58.941Z,1011.87
2022-10-18T08:59:23.284Z,1011.89
2022-10-18T08:59:59.901Z,1011.87
2022-10-18T09:00:58.896Z,1011.89
2022-10-18T09:01:59.109Z,1011.93
2022-10-18T09:02:59.151Z,1011.92
2022-10-18T09:03:58.856Z,1011.91
2022-10-18T09:04:58.837Z,1011.89
2022-10-18T09:05:58.893Z,1011.90
2022-10-18T09:06:58.833Z,1011.90
2022-10-18T09:07:58.803Z,1011.93
2022-10-18T09:08:58.833Z,1011.86
2022-10-18T09:09:58.811Z,1011.89
2022-10-18T09:12:01.854Z,1011.88
2022-10-18T09:12:58.774Z,1011.88
2022-10-18T09:13:58.770Z,1011.87
2022-10-18T09:14:58.757Z,1011.88
2022-10-18T09:15:58.751Z,1011.89
2022-10-18T09:17:02.002Z,1011.88
2022-10-18T09:17:58.693Z,1011.91
2022-10-18T09:18:58.726Z,1011.91
2022-10-18T09:20:59.718Z,1011.96
2022-10-18T09:21:58.666Z,1011.99
2022-10-18T09:22:58.683Z,1011.98
2022-10-18T09:23:58.682Z,1011.98
2022-10-18T09:24:58.639Z,1011.92
2022-10-18T09:25:58.621Z,1011.98
2022-10-18T09:26:58.857Z,1012.00
2022-10-18T09:27:58.598Z,1011.98
2022-10-18T09:28:58.745Z,1011.98
2022-10-18T09:30:01.628Z,1012.01
2022-10-18T09:30:59.735Z,1012.03
2022-10-18T09:31:58.576Z,1012.05
2022-10-18T09:32:58.792Z,1012.04
2022-10-18T09:33:58.570Z,1012.03
2022-10-18T09:34:58.781Z,1012.04
2022-10-18T09:35:59.564Z,1012.05
2022-10-18T09:36:58.517Z,1012.06
2022-10-18T09:37:58.770Z,1012.09
2022-10-18T09:39:00.385Z,1012.06
2022-10-18T09:39:58.468Z,1012.08
2022-10-18T09:40:58.533Z,1012.10
2022-10-18T09:41:58.698Z,1012.06
2022-10-18T09:42:58.458Z,1012.05
2022-10-18T09:43:58.458Z,1012.09
2022-10-18T09:44:58.441Z,1012.08
2022-10-18T09:45:58.421Z,1012.09
2022-10-18T09:46:58.413Z,1012.07
2022-10-18T09:47:58.414Z,1012.02
2022-10-18T09:49:01.641Z,1012.01
2022-10-18T09:49:58.404Z,1012.05
2022-10-18T09:50:58.365Z,1012.03
2022-10-18T09:51:58.351Z,1012.02
2022-10-18T09:52:58.362Z,1012.02
2022-10-18T09:53:59.352Z,1012.03
2022-10-18T09:54:58.351Z,1012.05
2022-10-18T09:55:58.506Z,1012.07
2022-10-18T09:56:58.339Z,1012.04
2022-10-18T09:57:58.545Z,1012.05
2022-10-18T09:58:58.305Z,1012.05
2022-10-18T09:59:58.274Z,1012.05
2022-10-18T10:00:59.293Z,1012.07
2022-10-18T10:01:59.258Z,1012.06
2022-10-18T10:03:05.544Z,1012.04
2022-10-18T10:03:58.265Z,1012.05
2022-10-18T10:04:58.271Z,1012.03
2022-10-18T10:05:58.446Z,1012.02
2022-10-18T10:06:59.236Z,1012.06
2022-10-18T10:07:58.446Z,1012.07
2022-10-18T10:08:58.233Z,1012.10
2022-10-18T10:09:58.190Z,1012.13
2022-10-18T10:10:58.191Z,1012.13
2022-10-18T10:12:05.491Z,1012.16
2022-10-18T10:12:59.355Z,1012.17
2022-10-18T10:13:58.136Z,1012.17
2022-10-18T10:14:58.117Z,1012.17
2022-10-18T10:15:58.344Z,1012.20
2022-10-18T10:16:58.119Z,1012.19
2022-10-18T10:17:58.088Z,1012.19
2022-10-18T10:18:58.318Z,1012.16
2022-10-18T10:19:58.296Z,1012.23
2022-10-18T10:20:58.290Z,1012.18
2022-10-18T10:21:58.086Z,1012.22
2022-10-18T10:22:58.071Z,1012.18
2022-10-18T10:23:58.022Z,1012.16
2022-10-18T10:25:01.052Z,1012.18
2022-10-18T10:25:58.241Z,1012.11
2022-10-18T10:26:58.015Z,1012.12
2022-10-18T10:27:58.001Z,1012.10
2022-10-18T10:28:58.025Z,1012.09
2022-10-18T10:30:07.240Z,1012.10
2022-10-18T10:30:58.194Z,1012.11
2022-10-18T10:31:57.950Z,1012.09
2022-10-18T10:32:57.937Z,1012.12
2022-10-18T10:34:00.962Z,1012.15
2022-10-18T10:34:59.187Z,1012.20
2022-10-18T10:36:00.941Z,1012.19
2022-10-18T10:36:58.133Z,1012.21
2022-10-18T10:37:57.893Z,1012.26
2022-10-18T10:38:57.878Z,1012.22
2022-10-18T10:40:17.350Z,1012.23
2022-10-18T10:40:58.870Z,1012.20
2022-10-18T10:41:57.862Z,1012.21
2022-10-18T10:43:08.791Z,1012.22
2022-10-18T10:43:58.833Z,1012.20
2022-10-18T10:44:58.047Z,1012.20
2022-10-18T10:45:57.801Z,1012.15
2022-10-18T10:46:57.826Z,1012.19
2022-10-18T10:47:57.785Z,1012.20
2022-10-18T10:49:21.642Z,1012.15
2022-10-18T10:49:58.777Z,1012.14
2022-10-18T10:50:58.773Z,1012.09
2022-10-18T10:52:08.495Z,1012.09
2022-10-18T10:52:58.742Z,1012.13
2022-10-18T10:53:57.720Z,1012.12
2022-10-18T10:55:33.684Z,1012.11
2022-10-18T10:55:58.705Z,1012.14
2022-10-18T10:56:57.729Z,1012.13
2022-10-18T10:57:57.927Z,1012.13
2022-10-18T10:58:57.678Z,1012.14
2022-10-18T10:59:57.658Z,1012.13
2022-10-18T11:00:58.685Z,1012.14
2022-10-18T11:01:57.643Z,1012.18
2022-10-18T11:03:05.840Z,1012.18
2022-10-18T11:03:58.694Z,1012.15
2022-10-18T11:04:57.659Z,1012.19
2022-10-18T11:05:57.669Z,1012.20
2022-10-18T11:06:57.820Z,1012.18
2022-10-18T11:07:57.582Z,1012.20
2022-10-18T11:08:57.563Z,1012.23
2022-10-18T11:09:57.544Z,1012.24
2022-10-18T11:10:57.826Z,1012.27
2022-10-18T11:11:57.543Z,1012.23
2022-10-18T11:12:57.522Z,1012.24
2022-10-18T11:14:13.643Z,1012.20
2022-10-18T11:14:58.504Z,1012.20
2022-10-18T11:15:57.737Z,1012.18
2022-10-18T11:16:57.475Z,1012.22
2022-10-18T11:17:57.507Z,1012.19
2022-10-18T11:18:57.468Z,1012.17
2022-10-18T11:19:57.448Z,1012.20
2022-10-18T11:20:57.507Z,1012.25
2022-10-18T11:21:57.481Z,1012.26
2022-10-18T11:22:57.421Z,1012.28
2022-10-18T11:23:57.408Z,1012.18
2022-10-18T11:24:57.404Z,1012.16
2022-10-18T11:25:57.443Z,1012.23
2022-10-18T11:27:00.406Z,1012.18
2022-10-18T11:27:57.378Z,1012.23
2022-10-18T11:28:57.499Z,1012.23
2022-10-18T11:29:57.342Z,1012.26
2022-10-18T11:30:57.367Z,1012.26
2022-10-18T11:31:57.342Z,1012.23
2022-10-18T11:32:57.324Z,1012.21
2022-10-18T11:34:08.758Z,1012.24
2022-10-18T11:34:58.312Z,1012.21
2022-10-18T11:36:01.500Z,1012.20
2022-10-18T11:37:22.875Z,1012.17
2022-10-18T11:37:58.272Z,1012.20
2022-10-18T11:38:57.293Z,1012.24
2022-10-18T11:39:57.254Z,1012.23
2022-10-18T11:40:57.244Z,1012.20
2022-10-18T11:41:57.233Z,1012.19
2022-10-18T11:42:57.233Z,1012.22
2022-10-18T11:44:03.150Z,1012.19
2022-10-18T11:44:57.204Z,1012.20
2022-10-18T11:45:57.191Z,1012.20
2022-10-18T11:46:57.443Z,1012.21
2022-10-18T11:47:58.175Z,1012.22
2022-10-18T11:48:57.192Z,1012.23
2022-10-18T11:49:57.156Z,1012.23
2022-10-18T11:50:57.169Z,1012.26
2022-10-18T11:52:07.705Z,1012.23
2022-10-18T11:52:58.109Z,1012.23
2022-10-18T11:53:57.125Z,1012.24
2022-10-18T11:54:57.116Z,1012.17
2022-10-18T11:55:57.078Z,1012.18
2022-10-18T11:56:57.090Z,1012.18
2022-10-18T11:57:57.064Z,1012.16
2022-10-18T11:58:57.077Z,1012.13
2022-10-18T11:59:57.056Z,1012.13
2022-10-18T12:00:57.234Z,1012.09
2022-10-18T12:01:58.277Z,1012.09
2022-10-18T12:02:57.131Z,1012.13
2022-10-18T12:03:57.035Z,1012.15
2022-10-18T12:05:22.050Z,1012.15
2022-10-18T12:05:58.204Z,1012.22
2022-10-18T12:06:57.997Z,1012.15
2022-10-18T12:07:56.999Z,1012.12